createdAt,value
2023-02-15T00:00:12.301Z,4.40
2023-02-15T00:02:39.809Z,4.20
2023-02-15T00:05:08.100Z,4.20
2023-02-15T00:07:35.835Z,4.20
2023-02-15T00:10:02.957Z,4.20
2023-02-15T00:12:29.965Z,4.10
2023-02-15T00:14:56.908Z,4.10
2023-02-15T00:17:24.958Z,4.10
2023-02-15T00:19:52.000Z,4.00
2023-02-15T00:22:18.995Z,4.10
2023-02-15T00:24:45.921Z,4.20
2023-02-15T00:27:12.899Z,4.00
2023-02-15T00:29:39.953Z,4.00
2023-02-15T00:32:07.370Z,4.00
2023-02-15T00:34:34.462Z,3.90
2023-02-15T00:37:01.947Z,3.90
2023-02-15T00:39:30.158Z,3.80
2023-02-15T00:41:57.373Z,3.80
2023-02-15T00:44:24.329Z,3.80
2023-02-15T00:46:51.393Z,3.90
2023-02-15T00:49:18.984Z,3.80
2023-02-15T00:51:46.092Z,3.90
2023-02-15T00:54:12.974Z,3.70
2023-02-15T00:56:39.844Z,3.70
2023-02-15T00:59:07.525Z,3.70
2023-02-15T01:01:36.016Z,3.90
2023-02-15T01:04:04.789Z,3.60
2023-02-15T01:06:34.406Z,3.60
2023-02-15T01:09:01.317Z,3.50
2023-02-15T01:11:28.221Z,3.60
2023-02-15T01:13:57.942Z,3.50
2023-02-15T01:16:28.775Z,3.60
2023-02-15T01:18:56.632Z,3.50
2023-02-15T01:21:26.023Z,3.50
2023-02-15T01:23:53.501Z,3.50
2023-02-15T01:26:23.579Z,3.50
2023-02-15T01:28:50.518Z,3.50
2023-02-15T01:31:20.376Z,3.50
2023-02-15T01:33:48.846Z,3.50
2023-02-15T01:36:17.727Z,3.50
2023-02-15T01:38:44.721Z,3.50
2023-02-15T01:41:29.799Z,3.40
2023-02-15T01:44:01.878Z,3.40
2023-02-15T01:46:32.273Z,3.40
2023-02-15T01:49:20.816Z,3.30
2023-02-15T01:51:51.299Z,3.30
2023-02-15T01:54:25.896Z,3.20
2023-02-15T01:56:55.867Z,3.20
2023-02-15T01:59:25.871Z,3.20
2023-02-15T02:01:56.603Z,3.10
2023-02-15T02:04:42.442Z,3.10
2023-02-15T02:07:11.575Z,3.10
2023-02-15T02:09:39.736Z,2.90
2023-02-15T02:12:09.709Z,2.90
2023-02-15T02:14:38.850Z,2.80
2023-02-15T02:17:24.440Z,2.90
2023-02-15T02:20:25.542Z,2.90
2023-02-15T02:23:01.446Z,2.80
2023-02-15T02:26:06.118Z,2.80
2023-02-15T02:28:44.946Z,2.80
2023-02-15T02:31:45.789Z,2.80
2023-02-15T02:34:34.570Z,2.80
2023-02-15T02:37:25.905Z,2.80
2023-02-15T02:40:35.782Z,2.70
2023-02-15T02:43:12.058Z,2.80
2023-02-15T02:45:56.097Z,2.80
2023-02-15T02:48:28.081Z,2.70
2023-02-15T02:50:58.081Z,2.80
2023-02-15T02:53:25.447Z,2.80
2023-02-15T02:55:57.184Z,2.80
2023-02-15T02:59:00.928Z,2.80
2023-02-15T03:01:43.879Z,2.80
2023-02-15T03:04:16.974Z,2.80
2023-02-15T03:06:49.495Z,2.80
2023-02-15T03:09:25.921Z,2.80
2023-02-15T03:11:53.031Z,2.60
2023-02-15T03:14:22.213Z,2.60
2023-02-15T03:16:51.321Z,2.60
2023-02-15T03:19:24.793Z,2.60
2023-02-15T03:21:59.153Z,2.50
2023-02-15T03:24:38.284Z,2.50
2023-02-15T03:27:12.371Z,2.50
2023-02-15T03:29:40.843Z,2.50
2023-02-15T03:32:11.527Z,2.40
2023-02-15T03:34:38.941Z,2.50
2023-02-15T03:37:36.691Z,2.40
2023-02-15T03:40:42.690Z,2.50
2023-02-15T03:43:33.019Z,2.40
2023-02-15T03:46:13.461Z,2.40
2023-02-15T03:48:50.736Z,2.40
2023-02-15T03:51:36.464Z,2.30
2023-02-15T03:54:11.196Z,2.40
2023-02-15T03:56:41.699Z,2.30
2023-02-15T03:59:27.790Z,2.20
2023-02-15T04:02:00.737Z,2.10
2023-02-15T04:04:44.277Z,2.00
2023-02-15T04:07:11.577Z,2.10
2023-02-15T04:09:56.894Z,2.10
2023-02-15T04:12:24.789Z,2.00
2023-02-15T04:15:10.328Z,2.10
2023-02-15T04:17:38.834Z,2.00
2023-02-15T04:20:26.780Z,1.90
2023-02-15T04:23:13.295Z,1.90
2023-02-15T04:25:40.360Z,1.80
2023-02-15T04:28:08.791Z,2.00
2023-02-15T04:30:36.456Z,1.90
2023-02-15T04:33:03.500Z,1.90
2023-02-15T04:35:32.793Z,1.90
2023-02-15T04:38:00.026Z,1.90
2023-02-15T04:40:27.168Z,1.90
2023-02-15T04:42:54.132Z,1.90
2023-02-15T04:45:21.185Z,1.80
2023-02-15T04:47:48.235Z,1.90
2023-02-15T04:50:15.351Z,1.80
2023-02-15T04:52:42.265Z,1.80
2023-02-15T04:55:09.846Z,1.70
2023-02-15T04:57:37.177Z,1.70
2023-02-15T05:00:04.588Z,1.70
2023-02-15T05:02:31.593Z,1.70
2023-02-15T05:04:58.588Z,1.70
2023-02-15T05:07:26.364Z,1.70
2023-02-15T05:09:53.696Z,1.70
2023-02-15T05:12:20.615Z,1.70
2023-02-15T05:14:47.616Z,1.70
2023-02-15T05:17:14.532Z,1.70
2023-02-15T05:19:42.285Z,1.70
2023-02-15T05:22:09.168Z,1.70
2023-02-15T05:24:59.796Z,1.60
2023-02-15T05:27:45.538Z,1.60
2023-02-15T05:30:13.280Z,1.60
2023-02-15T05:32:40.538Z,1.50
2023-02-15T05:35:09.128Z,1.50
2023-02-15T05:37:36.782Z,1.50
2023-02-15T05:40:03.815Z,1.60
2023-02-15T05:42:30.755Z,1.50
2023-02-15T05:44:57.694Z,1.50
2023-02-15T05:47:24.799Z,1.60
2023-02-15T05:49:51.881Z,1.50
2023-02-15T05:52:19.144Z,1.40
2023-02-15T05:54:46.348Z,1.40
2023-02-15T05:57:14.490Z,1.40
2023-02-15T05:59:43.146Z,1.30
2023-02-15T06:02:10.177Z,1.30
2023-02-15T06:04:37.208Z,1.30
2023-02-15T06:07:04.101Z,1.30
2023-02-15T06:09:32.370Z,1.30
2023-02-15T06:11:59.597Z,1.20
2023-02-15T06:14:26.756Z,1.20
2023-02-15T06:16:53.983Z,1.30
2023-02-15T06:19:23.874Z,1.20
2023-02-15T06:21:51.283Z,1.20
2023-02-15T06:24:19.370Z,1.20
2023-02-15T06:26:46.400Z,1.20
2023-02-15T06:29:14.757Z,1.20
2023-02-15T06:31:41.784Z,1.20
2023-02-15T06:34:10.524Z,1.10
2023-02-15T06:36:37.899Z,1.20
2023-02-15T06:39:08.815Z,1.20
2023-02-15T06:41:35.881Z,1.20
2023-02-15T06:44:02.932Z,1.20
2023-02-15T06:46:30.012Z,1.20
2023-02-15T06:48:57.010Z,1.20
2023-02-15T06:51:23.915Z,1.20
2023-02-15T06:53:51.029Z,1.20
2023-02-15T06:56:17.963Z,1.30
2023-02-15T06:58:47.069Z,1.40
2023-02-15T07:01:14.064Z,1.30
2023-02-15T07:03:41.153Z,1.30
2023-02-15T07:06:09.897Z,1.40
2023-02-15T07:08:37.566Z,1.40
2023-02-15T07:11:23.998Z,1.40
2023-02-15T07:13:51.906Z,1.50
2023-02-15T07:16:19.394Z,1.60
2023-02-15T07:18:46.575Z,1.60
2023-02-15T07:21:13.856Z,1.60
2023-02-15T07:23:41.064Z,1.80
2023-02-15T07:26:08.674Z,1.70
2023-02-15T07:28:37.448Z,1.70
2023-02-15T07:31:05.697Z,1.90
2023-02-15T07:33:33.598Z,1.80
2023-02-15T07:36:03.691Z,1.80
2023-02-15T07:38:36.326Z,2.20
2023-02-15T07:41:07.480Z,2.10
2023-02-15T07:43:36.460Z,2.20
2023-02-15T07:46:05.797Z,2.30
2023-02-15T07:48:34.956Z,2.40
2023-02-15T07:51:04.748Z,2.80
2023-02-15T07:53:33.899Z,2.70
2023-02-15T07:56:02.884Z,2.70
2023-02-15T07:58:48.664Z,2.80
2023-02-15T08:01:15.998Z,2.90
2023-02-15T08:03:42.982Z,2.90
2023-02-15T08:06:12.466Z,3.20
2023-02-15T08:08:39.591Z,3.10
2023-02-15T08:11:26.508Z,3.20
2023-02-15T08:13:57.400Z,3.30
2023-02-15T08:16:38.646Z,3.40
2023-02-15T08:19:15.571Z,3.60
2023-02-15T08:21:57.975Z,3.70
2023-02-15T08:24:27.012Z,3.80
2023-02-15T08:26:54.622Z,4.00
2023-02-15T08:29:30.412Z,4.10
2023-02-15T08:32:04.667Z,4.30
2023-02-15T08:34:37.776Z,4.40
2023-02-15T08:37:05.037Z,4.50
2023-02-15T08:39:32.091Z,4.60
2023-02-15T08:42:00.328Z,4.70
2023-02-15T08:44:27.368Z,4.80
2023-02-15T08:46:55.720Z,4.90
2023-02-15T08:49:25.113Z,5.10
2023-02-15T08:51:52.127Z,5.10
2023-02-15T08:54:25.302Z,5.30
2023-02-15T08:56:52.682Z,5.40
2023-02-15T08:59:24.261Z,5.60
2023-02-15T09:01:52.972Z,5.80
2023-02-15T09:04:21.259Z,6.10
2023-02-15T09:06:50.005Z,6.30
2023-02-15T09:09:18.860Z,6.60
2023-02-15T09:11:53.399Z,6.90
2023-02-15T09:14:24.524Z,7.10
2023-02-15T09:16:54.208Z,7.20
2023-02-15T09:19:23.570Z,7.50
2023-02-15T09:21:52.915Z,7.90
2023-02-15T09:24:20.102Z,8.10
2023-02-15T09:26:48.998Z,8.40
2023-02-15T09:29:17.384Z,8.20
2023-02-15T09:31:47.258Z,8.30
2023-02-15T09:34:18.425Z,8.50
2023-02-15T09:36:45.827Z,8.80
2023-02-15T09:39:24.846Z,9.00
2023-02-15T09:41:54.942Z,9.30
2023-02-15T09:44:40.916Z,9.40
2023-02-15T09:47:23.429Z,9.50
2023-02-15T09:50:23.531Z,9.80
2023-02-15T09:53:28.032Z,9.80
2023-02-15T09:55:57.965Z,9.90
2023-02-15T09:58:46.293Z,10.10
2023-02-15T10:01:23.833Z,10.20
2023-02-15T10:04:17.577Z,10.30
2023-02-15T10:07:14.005Z,10.40
2023-02-15T10:10:11.532Z,10.50
2023-02-15T10:12:48.930Z,10.50
2023-02-15T10:15:20.210Z,10.60
2023-02-15T10:17:59.048Z,10.50
2023-02-15T10:20:27.466Z,10.70
2023-02-15T10:22:54.479Z,10.90
2023-02-15T10:25:48.342Z,11.00
2023-02-15T10:28:29.526Z,11.10
2023-02-15T10:31:16.500Z,11.20
2023-02-15T10:33:46.816Z,11.40
2023-02-15T10:36:44.820Z,11.60
2023-02-15T10:39:47.996Z,11.60
2023-02-15T10:42:40.049Z,11.90
2023-02-15T10:45:25.119Z,12.10
2023-02-15T10:48:14.116Z,12.20
2023-02-15T10:50:54.010Z,12.10
2023-02-15T10:53:42.688Z,12.20
2023-02-15T10:56:54.214Z,12.40
2023-02-15T10:59:50.194Z,12.60
2023-02-15T11:02:47.363Z,12.80
2023-02-15T11:05:50.170Z,12.70
2023-02-15T11:08:17.408Z,12.90
2023-02-15T11:10:53.837Z,12.90
2023-02-15T11:13:25.088Z,12.80
2023-02-15T11:16:11.772Z,12.90
2023-02-15T11:18:44.486Z,12.90
2023-02-15T11:21:40.250Z,12.90
2023-02-15T11:24:17.744Z,12.90
2023-02-15T11:27:05.536Z,12.90
2023-02-15T11:29:51.939Z,12.80
2023-02-15T11:32:27.312Z,12.80
2023-02-15T11:35:15.442Z,12.90
2023-02-15T11:37:49.895Z,12.90
2023-02-15T11:40:31.378Z,12.90
2023-02-15T11:43:03.509Z,13.00
2023-02-15T11:45:32.221Z,13.10
2023-02-15T11:48:01.254Z,13.10
2023-02-15T11:50:34.200Z,13.10
2023-02-15T11:53:07.230Z,13.10
2023-02-15T11:55:36.199Z,13.20
2023-02-15T11:58:41.046Z,13.30
2023-02-15T12:01:24.154Z,13.50
2023-02-15T12:04:19.179Z,13.70
2023-02-15T12:07:13.582Z,13.80
2023-02-15T12:10:16.134Z,13.90
2023-02-15T12:12:43.437Z,14.00
2023-02-15T12:15:12.984Z,14.10
2023-02-15T12:17:55.583Z,14.20
2023-02-15T12:20:37.354Z,14.10
2023-02-15T12:23:12.372Z,14.20
2023-02-15T12:25:55.879Z,14.20
2023-02-15T12:28:34.246Z,14.30
2023-02-15T12:31:04.734Z,14.50
2023-02-15T12:33:47.071Z,14.50
2023-02-15T12:36:19.910Z,14.50
2023-02-15T12:39:18.050Z,14.30
2023-02-15T12:42:16.964Z,14.50
2023-02-15T12:45:03.117Z,14.70
2023-02-15T12:47:33.520Z,14.70
2023-02-15T12:50:18.203Z,14.70
2023-02-15T12:52:48.699Z,14.90
2023-02-15T12:55:30.780Z,15.00
2023-02-15T12:58:09.064Z,15.30
2023-02-15T13:00:36.846Z,15.30
2023-02-15T13:03:04.840Z,15.30
2023-02-15T13:05:44.141Z,15.40
2023-02-15T13:08:15.220Z,15.40
2023-02-15T13:10:54.293Z,15.40
2023-02-15T13:13:24.965Z,15.30
2023-02-15T13:15:55.372Z,15.30
2023-02-15T13:18:36.989Z,15.20
2023-02-15T13:21:27.752Z,15.20
2023-02-15T13:24:01.012Z,15.10
2023-02-15T13:26:33.081Z,15.20
2023-02-15T13:29:09.563Z,15.30
2023-02-15T13:31:38.005Z,15.50
2023-02-15T13:34:26.312Z,15.70
2023-02-15T13:37:31.991Z,15.70
2023-02-15T13:40:04.758Z,15.60
2023-02-15T13:42:46.895Z,15.70
2023-02-15T13:45:32.002Z,15.70
2023-02-15T13:48:05.557Z,15.80
2023-02-15T13:50:48.384Z,15.90
2023-02-15T13:53:36.261Z,16.20
2023-02-15T13:56:20.635Z,16.70
2023-02-15T13:59:27.116Z,17.10
2023-02-15T14:02:05.465Z,17.00
2023-02-15T14:04:50.395Z,17.10
2023-02-15T14:07:42.557Z,17.00
2023-02-15T14:10:28.162Z,16.90
2023-02-15T14:13:19.772Z,17.00
2023-02-15T14:16:11.859Z,17.50
2023-02-15T14:18:45.103Z,17.80
2023-02-15T14:21:34.570Z,17.90
2023-02-15T14:24:09.347Z,18.10
2023-02-15T14:26:51.870Z,18.30
2023-02-15T14:29:22.155Z,18.90
2023-02-15T14:31:55.483Z,19.10
2023-02-15T14:34:27.016Z,18.90
2023-02-15T14:36:55.058Z,18.50
2023-02-15T14:40:15.856Z,18.40
2023-02-15T14:43:24.534Z,18.20
2023-02-15T14:46:13.920Z,17.90
2023-02-15T14:48:48.820Z,17.80
2023-02-15T14:51:44.149Z,17.70
2023-02-15T14:54:34.134Z,17.40
2023-02-15T14:57:04.106Z,17.20
2023-02-15T15:00:00.777Z,17.00
2023-02-15T15:02:49.549Z,16.80
2023-02-15T15:05:37.385Z,16.50
2023-02-15T15:08:06.279Z,16.30
2023-02-15T15:10:40.722Z,16.30
2023-02-15T15:13:33.716Z,16.30
2023-02-15T15:16:31.551Z,16.30
2023-02-15T15:19:00.616Z,16.20
2023-02-15T15:21:49.457Z,16.20
2023-02-15T15:24:38.557Z,16.20
2023-02-15T15:27:45.199Z,16.10
2023-02-15T15:30:18.602Z,15.90
2023-02-15T15:32:54.848Z,15.70
2023-02-15T15:35:29.307Z,15.60
2023-02-15T15:38:30.244Z,15.40
2023-02-15T15:41:20.961Z,15.30
2023-02-15T15:44:26.038Z,15.20
2023-02-15T15:47:10.791Z,15.10
2023-02-15T15:49:39.823Z,15.00
2023-02-15T15:52:28.820Z,14.90
2023-02-15T15:55:06.484Z,14.70
2023-02-15T15:57:39.324Z,14.70
2023-02-15T16:00:22.767Z,14.60
2023-02-15T16:02:55.858Z,14.60
2023-02-15T16:05:23.590Z,14.50
2023-02-15T16:07:51.084Z,14.40
2023-02-15T16:10:27.335Z,14.30
2023-02-15T16:12:55.887Z,14.40
2023-02-15T16:15:32.238Z,14.30
2023-02-15T16:18:00.699Z,14.20
2023-02-15T16:20:32.464Z,14.00
2023-02-15T16:23:32.042Z,13.90
2023-02-15T16:26:19.872Z,13.80
2023-02-15T16:28:54.774Z,13.60
2023-02-15T16:31:26.458Z,13.60
2023-02-15T16:33:56.915Z,13.40
2023-02-15T16:36:27.870Z,13.30
2023-02-15T16:38:58.000Z,13.40
2023-02-15T16:41:26.774Z,13.30
2023-02-15T16:43:58.013Z,13.20
2023-02-15T16:46:32.310Z,13.00
2023-02-15T16:49:06.784Z,12.80
2023-02-15T16:51:35.581Z,12.70
2023-02-15T16:54:08.935Z,12.50
2023-02-15T16:56:37.462Z,12.40
2023-02-15T16:59:04.563Z,12.20
2023-02-15T17:01:33.759Z,12.30
2023-02-15T17:04:13.372Z,12.20
2023-02-15T17:06:40.522Z,12.00
2023-02-15T17:09:19.444Z,11.90
2023-02-15T17:11:46.706Z,11.90
2023-02-15T17:14:21.775Z,11.80
2023-02-15T17:16:52.865Z,11.70
2023-02-15T17:19:27.478Z,11.70
2023-02-15T17:21:57.554Z,11.80
2023-02-15T17:24:34.844Z,11.60
2023-02-15T17:27:15.543Z,11.50
2023-02-15T17:29:53.404Z,11.40
2023-02-15T17:32:23.392Z,11.30
2023-02-15T17:34:58.106Z,11.20
2023-02-15T17:37:26.632Z,11.10
2023-02-15T17:39:54.089Z,11.10
2023-02-15T17:42:21.255Z,11.00
2023-02-15T17:44:49.185Z,10.80
2023-02-15T17:47:25.695Z,10.50
2023-02-15T17:49:54.184Z,10.30
2023-02-15T17:52:21.122Z,10.10
2023-02-15T17:55:06.870Z,10.00
2023-02-15T17:57:35.844Z,10.00
2023-02-15T18:00:21.425Z,9.80
2023-02-15T18:03:07.131Z,9.60
2023-02-15T18:05:52.646Z,9.60
2023-02-15T18:08:42.119Z,9.50
2023-02-15T18:11:29.738Z,9.50
2023-02-15T18:14:01.313Z,9.50
2023-02-15T18:16:31.364Z,9.50
2023-02-15T18:18:58.498Z,9.40
2023-02-15T18:21:26.171Z,9.20
2023-02-15T18:23:53.849Z,9.20
2023-02-15T18:26:24.433Z,9.10
2023-02-15T18:28:52.298Z,9.00
2023-02-15T18:31:21.035Z,9.00
2023-02-15T18:33:59.663Z,9.00
2023-02-15T18:36:30.648Z,9.00
2023-02-15T18:38:58.131Z,9.00
2023-02-15T18:41:25.750Z,8.90
2023-02-15T18:43:54.616Z,8.80
2023-02-15T18:46:22.238Z,8.90
2023-02-15T18:48:49.303Z,8.90
2023-02-15T18:51:24.092Z,8.90
2023-02-15T18:53:53.041Z,8.90
2023-02-15T18:56:22.919Z,8.70
2023-02-15T18:58:50.100Z,8.60
2023-02-15T19:01:20.094Z,8.60
2023-02-15T19:03:49.164Z,8.70
2023-02-15T19:06:21.250Z,8.90
2023-02-15T19:08:50.903Z,9.00
2023-02-15T19:11:23.668Z,8.90
2023-02-15T19:13:52.357Z,8.80
2023-02-15T19:16:32.734Z,8.80
2023-02-15T19:19:00.593Z,8.80
2023-02-15T19:21:30.156Z,8.80
2023-02-15T19:24:01.904Z,8.90
2023-02-15T19:26:44.489Z,8.70
2023-02-15T19:29:14.837Z,8.80
2023-02-15T19:31:42.612Z,8.90
2023-02-15T19:34:16.004Z,8.90
2023-02-15T19:36:44.875Z,8.80
2023-02-15T19:39:23.174Z,8.70
2023-02-15T19:41:50.269Z,8.60
2023-02-15T19:44:18.387Z,8.60
2023-02-15T19:46:46.169Z,8.60
2023-02-15T19:49:13.666Z,8.60
2023-02-15T19:51:40.861Z,8.80
2023-02-15T19:54:20.911Z,8.90
2023-02-15T19:56:47.994Z,8.80
2023-02-15T19:59:23.430Z,8.90
2023-02-15T20:01:50.544Z,9.00
2023-02-15T20:04:17.671Z,8.90
2023-02-15T20:06:46.059Z,8.90
2023-02-15T20:09:35.429Z,8.90
2023-02-15T20:12:02.422Z,9.00
2023-02-15T20:14:29.811Z,9.00
2023-02-15T20:16:56.836Z,8.90
2023-02-15T20:19:23.832Z,8.80
2023-02-15T20:21:54.533Z,8.80
2023-02-15T20:24:24.681Z,8.80
2023-02-15T20:26:51.627Z,8.60
2023-02-15T20:29:19.849Z,8.50
2023-02-15T20:31:46.922Z,8.10
2023-02-15T20:34:14.453Z,8.10
2023-02-15T20:36:42.046Z,8.00
2023-02-15T20:39:16.300Z,7.90
2023-02-15T20:41:49.510Z,8.10
2023-02-15T20:44:20.941Z,7.90
2023-02-15T20:46:49.471Z,7.90
2023-02-15T20:49:16.487Z,7.70
2023-02-15T20:51:44.603Z,7.50
2023-02-15T20:54:20.458Z,7.50
2023-02-15T20:56:48.381Z,7.50
2023-02-15T20:59:24.447Z,7.50
2023-02-15T21:01:54.682Z,7.50
2023-02-15T21:04:31.437Z,7.60
2023-02-15T21:06:59.139Z,7.50
2023-02-15T21:09:26.549Z,7.40
2023-02-15T21:11:56.261Z,7.30
2023-02-15T21:14:26.209Z,7.30
2023-02-15T21:16:53.798Z,7.50
2023-02-15T21:19:24.819Z,7.10
2023-02-15T21:21:54.582Z,7.10
2023-02-15T21:24:32.389Z,6.90
2023-02-15T21:27:03.485Z,6.80
2023-02-15T21:29:31.449Z,6.80
2023-02-15T21:31:58.687Z,7.00
2023-02-15T21:34:25.992Z,6.90
2023-02-15T21:36:54.090Z,6.80
2023-02-15T21:39:26.421Z,7.00
2023-02-15T21:42:13.348Z,6.80
2023-02-15T21:44:59.600Z,6.90
2023-02-15T21:47:50.971Z,7.00
2023-02-15T21:50:41.670Z,6.90
2023-02-15T21:53:12.546Z,6.90
2023-02-15T21:55:39.529Z,6.80
2023-02-15T21:58:06.449Z,6.90
2023-02-15T22:00:33.986Z,7.00
2023-02-15T22:03:01.954Z,7.00
2023-02-15T22:05:32.250Z,7.00
2023-02-15T22:07:59.982Z,7.00
2023-02-15T22:10:31.852Z,7.00
2023-02-15T22:13:02.780Z,7.00
2023-02-15T22:15:37.052Z,7.00
2023-02-15T22:18:05.044Z,7.00
2023-02-15T22:20:32.214Z,7.00
2023-02-15T22:22:59.121Z,7.00
2023-02-15T22:25:27.258Z,7.10
2023-02-15T22:27:55.421Z,7.20
2023-02-15T22:30:32.283Z,7.30
2023-02-15T22:33:01.000Z,7.20
2023-02-15T22:35:30.438Z,7.10
2023-02-15T22:37:58.220Z,7.20
2023-02-15T22:40:34.570Z,7.20
2023-02-15T22:43:04.428Z,7.10
2023-02-15T22:45:32.822Z,7.00
2023-02-15T22:48:00.948Z,7.20
2023-02-15T22:50:32.944Z,7.00
2023-02-15T22:53:03.913Z,7.00
2023-02-15T22:55:36.273Z,6.90
2023-02-15T22:58:04.246Z,7.20
2023-02-15T23:00:40.651Z,6.90
2023-02-15T23:03:20.824Z,6.90
2023-02-15T23:05:48.179Z,6.90
2023-02-15T23:08:16.327Z,7.10
2023-02-15T23:10:45.169Z,6.80
2023-02-15T23:13:32.823Z,6.70
2023-02-15T23:16:02.268Z,6.60
2023-02-15T23:18:33.809Z,6.70
2023-02-15T23:21:15.772Z,6.60
2023-02-15T23:23:45.353Z,6.40
2023-02-15T23:26:22.165Z,6.30
2023-02-15T23:28:50.846Z,6.30
2023-02-15T23:31:30.842Z,6.30
2023-02-15T23:34:00.453Z,6.30
2023-02-15T23:36:37.252Z,6.30
2023-02-15T23:39:32.988Z,6.20
2023-02-15T23:42:05.790Z,6.20
2023-02-15T23:44:33.118Z,6.10
2023-02-15T23:47:00.100Z,6.10
2023-02-15T23:49:27.113Z,6.30
2023-02-15T23:51:55.847Z,6.20
2023-02-15T23:54:25.371Z,6.10
2023-02-15T23:57:02.001Z,6.10
2023-02-15T23:59:31.642Z,6.10
